createdAt,value
2018-08-09T00:02:00.408Z,101229.53
2018-08-09T00:04:30.010Z,101234.64
2018-08-09T00:06:59.670Z,101240.91
2018-08-09T00:09:29.108Z,101239.64
2018-08-09T00:11:58.586Z,101244.65
2018-08-09T00:14:28.193Z,101242.05
2018-08-09T00:16:57.779Z,101242.55
2018-08-09T00:19:28.237Z,101244.04
2018-08-09T00:21:57.733Z,101246.23
2018-08-09T00:24:27.299Z,101242.60
2018-08-09T00:26:56.808Z,101240.16
2018-08-09T00:29:26.282Z,101240.20
2018-08-09T00:31:55.778Z,101240.64
2018-08-09T00:34:25.302Z,101239.44
2018-08-09T00:36:54.770Z,101237.86
2018-08-09T00:39:24.375Z,101239.31
2018-08-09T00:41:53.961Z,101240.05
2018-08-09T00:44:24.069Z,101240.27
2018-08-09T00:46:53.601Z,101241.31
2018-08-09T00:49:23.266Z,101245.61
2018-08-09T00:51:52.811Z,101248.55
2018-08-09T00:54:22.301Z,101245.32
2018-08-09T00:56:51.833Z,101241.16
2018-08-09T00:59:21.412Z,101238.03
2018-08-09T01:01:50.946Z,101235.18
2018-08-09T01:04:20.550Z,101242.66
2018-08-09T01:06:50.134Z,101239.58
2018-08-09T01:09:19.591Z,101244.77
2018-08-09T01:11:49.146Z,101238.37
2018-08-09T01:14:18.592Z,101239.95
2018-08-09T01:16:48.118Z,101241.91
2018-08-09T01:19:17.670Z,101242.84
2018-08-09T01:21:47.253Z,101244.56
2018-08-09T01:24:16.853Z,101240.82
2018-08-09T01:26:46.357Z,101237.09
2018-08-09T01:29:15.897Z,101237.13
2018-08-09T01:31:45.516Z,101239.61
2018-08-09T01:34:15.046Z,101240.03
2018-08-09T01:36:45.429Z,101237.45
2018-08-09T01:39:15.252Z,101241.62
2018-08-09T01:42:01.666Z,101236.73
2018-08-09T01:44:31.111Z,101238.38
2018-08-09T01:47:00.543Z,101240.36
2018-08-09T01:49:30.169Z,101239.86
2018-08-09T01:51:59.664Z,101232.29
2018-08-09T01:54:29.140Z,101235.28
2018-08-09T01:56:58.612Z,101238.30
2018-08-09T01:59:28.173Z,101248.80
2018-08-09T02:01:57.659Z,101252.12
2018-08-09T02:04:27.102Z,101255.45
2018-08-09T02:06:56.746Z,101254.11
2018-08-09T02:09:31.356Z,101257.55
2018-08-09T02:12:01.226Z,101258.47
2018-08-09T02:14:30.717Z,101266.98
2018-08-09T02:17:00.614Z,101259.08
2018-08-09T02:19:30.331Z,101261.52
2018-08-09T02:21:59.915Z,101264.39
2018-08-09T02:24:29.413Z,101258.58
2018-08-09T02:26:58.921Z,101250.17
2018-08-09T02:29:28.429Z,101248.22
2018-08-09T02:31:57.927Z,101252.15
2018-08-09T02:34:27.369Z,101249.17
2018-08-09T02:36:56.853Z,101252.04
2018-08-09T02:39:27.195Z,101252.01
2018-08-09T02:41:56.790Z,101259.64
2018-08-09T02:44:26.891Z,101259.67
2018-08-09T02:46:56.443Z,101265.13
2018-08-09T02:49:26.392Z,101262.97
2018-08-09T02:51:56.163Z,101262.51
2018-08-09T02:54:25.686Z,101261.70
2018-08-09T02:56:55.368Z,101263.35
2018-08-09T02:59:24.889Z,101265.06
2018-08-09T03:01:54.542Z,101264.68
2018-08-09T03:04:24.076Z,101263.63
2018-08-09T03:06:53.710Z,101262.75
2018-08-09T03:09:23.395Z,101265.20
2018-08-09T03:11:53.006Z,101268.17
2018-08-09T03:14:22.579Z,101270.73
2018-08-09T03:16:52.960Z,101268.17
2018-08-09T03:19:22.702Z,101267.89
2018-08-09T03:21:52.397Z,101268.02
2018-08-09T03:24:22.740Z,101268.30
2018-08-09T03:29:41.192Z,101278.14
2018-08-09T03:32:10.925Z,101281.11
2018-08-09T03:34:40.535Z,101284.44
2018-08-09T03:37:10.156Z,101279.91
2018-08-09T03:39:40.529Z,101286.73
2018-08-09T03:42:10.283Z,101284.63
2018-08-09T03:44:39.849Z,101283.05
2018-08-09T03:47:09.438Z,101285.99
2018-08-09T03:49:39.031Z,101289.34
2018-08-09T03:52:08.520Z,101286.78
2018-08-09T03:54:38.164Z,101290.14
2018-08-09T03:57:07.607Z,101285.50
2018-08-09T03:59:37.282Z,101284.70
2018-08-09T04:02:07.076Z,101279.34
2018-08-09T04:04:36.664Z,101287.74
2018-08-09T04:07:07.266Z,101291.05
2018-08-09T04:09:37.522Z,101286.84
2018-08-09T04:12:07.551Z,101287.30
2018-08-09T04:15:16.967Z,101280.98
2018-08-09T04:17:46.516Z,101278.03
2018-08-09T04:20:16.051Z,101276.73
2018-08-09T04:22:45.678Z,101275.86
2018-08-09T04:25:15.376Z,101273.33
2018-08-09T04:27:46.109Z,101278.81
2018-08-09T04:30:15.609Z,101277.05
2018-08-09T04:32:45.470Z,101277.89
2018-08-09T04:35:15.616Z,101276.58
2018-08-09T04:37:45.368Z,101268.06
2018-08-09T04:40:15.095Z,101275.62
2018-08-09T04:42:44.872Z,101285.23
2018-08-09T04:45:14.444Z,101280.91
2018-08-09T04:47:44.092Z,101283.72
2018-08-09T04:50:13.596Z,101284.53
2018-08-09T04:52:43.730Z,101286.98
2018-08-09T04:55:13.395Z,101279.80
2018-08-09T04:57:43.937Z,101281.91
2018-08-09T05:00:13.525Z,101286.20
2018-08-09T05:02:43.718Z,101279.45
2018-08-09T05:05:13.362Z,101284.42
2018-08-09T05:07:42.903Z,101278.44
2018-08-09T05:10:14.609Z,101268.67
2018-08-09T05:12:45.357Z,101272.03
2018-08-09T05:15:16.710Z,101282.73
2018-08-09T05:17:46.855Z,101288.84
2018-08-09T05:20:16.369Z,101289.56
2018-08-09T05:22:47.164Z,101283.55
2018-08-09T05:25:16.847Z,101286.03
2018-08-09T05:27:47.317Z,101275.89
2018-08-09T05:30:16.979Z,101287.08
2018-08-09T05:32:49.012Z,101285.21
2018-08-09T05:35:19.534Z,101283.06
2018-08-09T05:37:49.985Z,101284.14
2018-08-09T05:40:19.788Z,101280.63
2018-08-09T05:42:50.286Z,101261.41
2018-08-09T05:45:20.018Z,101288.01
2018-08-09T05:47:49.532Z,101288.64
2018-08-09T05:50:19.749Z,101280.15
2018-08-09T05:52:51.034Z,101283.36
2018-08-09T05:55:21.121Z,101294.95
2018-08-09T05:57:50.963Z,101286.83
2018-08-09T06:00:21.538Z,101294.65
2018-08-09T06:02:51.079Z,101299.08
2018-08-09T06:05:20.799Z,101296.44
2018-08-09T06:07:51.364Z,101297.56
2018-08-09T06:10:21.031Z,101285.95
2018-08-09T06:12:50.949Z,101290.03
2018-08-09T06:15:21.905Z,101283.06
2018-08-09T06:17:51.453Z,101285.97
2018-08-09T06:20:21.268Z,101289.95
2018-08-09T06:22:51.705Z,101292.27
2018-08-09T06:25:21.428Z,101299.59
2018-08-09T06:27:51.692Z,101303.77
2018-08-09T06:30:21.772Z,101309.82
2018-08-09T06:32:52.670Z,101304.14
2018-08-09T06:35:22.379Z,101311.86
2018-08-09T06:37:52.782Z,101306.65
2018-08-09T06:40:23.325Z,101300.19
2018-08-09T06:42:53.682Z,101310.48
2018-08-09T06:45:24.198Z,101305.17
2018-08-09T06:47:54.775Z,101306.80
2018-08-09T06:50:24.311Z,101306.86
2018-08-09T06:52:53.901Z,101306.70
2018-08-09T06:55:23.484Z,101311.80
2018-08-09T06:57:53.668Z,101315.34
2018-08-09T07:00:23.360Z,101315.16
2018-08-09T07:02:52.991Z,101313.94
2018-08-09T07:05:22.591Z,101303.94
2018-08-09T07:07:52.333Z,101307.78
2018-08-09T07:10:22.181Z,101317.61
2018-08-09T07:12:52.133Z,101313.32
2018-08-09T07:15:21.635Z,101311.35
2018-08-09T07:17:51.885Z,101309.56
2018-08-09T07:20:22.642Z,101306.94
2018-08-09T07:22:53.301Z,101305.66
2018-08-09T07:25:23.534Z,101314.40
2018-08-09T07:27:53.805Z,101311.84
2018-08-09T07:30:23.530Z,101307.63
2018-08-09T07:32:54.136Z,101305.70
2018-08-09T07:35:23.780Z,101306.91
2018-08-09T07:37:53.509Z,101302.77
2018-08-09T07:40:23.696Z,101300.96
2018-08-09T07:42:53.364Z,101298.97
2018-08-09T07:45:23.552Z,101290.63
2018-08-09T07:47:53.713Z,101291.42
2018-08-09T07:50:23.305Z,101290.63
2018-08-09T07:52:53.045Z,101284.83
2018-08-09T07:55:22.678Z,101289.02
2018-08-09T07:57:52.458Z,101277.81
2018-08-09T08:00:22.118Z,101277.58
2018-08-09T08:02:51.786Z,101275.11
2018-08-09T08:05:21.432Z,101266.54
2018-08-09T08:07:51.552Z,101262.25
2018-08-09T08:10:21.169Z,101251.72
2018-08-09T08:13:06.718Z,101251.61
2018-08-09T08:15:36.824Z,101251.69
2018-08-09T08:18:06.650Z,101247.35
2018-08-09T08:20:37.040Z,101246.28
2018-08-09T08:23:09.872Z,101242.86
2018-08-09T08:25:40.128Z,101239.25
2018-08-09T08:28:10.434Z,101243.78
2018-08-09T08:30:39.989Z,101249.66
2018-08-09T08:33:10.063Z,101242.13
2018-08-09T08:35:39.585Z,101237.00
2018-08-09T08:38:09.919Z,101235.95
2018-08-09T08:40:39.502Z,101232.06
2018-08-09T08:43:09.189Z,101233.41
2018-08-09T08:45:40.764Z,101236.59
2018-08-09T08:48:11.294Z,101234.88
2018-08-09T08:50:40.980Z,101223.37
2018-08-09T08:53:10.635Z,101216.30
2018-08-09T08:55:40.312Z,101211.57
2018-08-09T08:58:09.992Z,101209.89
2018-08-09T09:00:40.651Z,101208.49
2018-08-09T09:03:10.799Z,101213.47
2018-08-09T09:05:40.387Z,101209.38
2018-08-09T09:08:10.451Z,101206.48
2018-08-09T09:10:40.042Z,101214.57
2018-08-09T09:13:10.253Z,101207.80
2018-08-09T09:15:40.060Z,101207.10
2018-08-09T09:18:10.567Z,101204.36
2018-08-09T09:20:40.286Z,101189.84
2018-08-09T09:23:09.973Z,101200.27
2018-08-09T09:25:40.517Z,101200.88
2018-08-09T09:28:10.785Z,101207.27
2018-08-09T09:30:41.748Z,101207.60
2018-08-09T09:33:11.238Z,101211.16
2018-08-09T09:35:41.344Z,101207.37
2018-08-09T09:38:11.794Z,101206.98
2018-08-09T09:40:41.346Z,101207.90
2018-08-09T09:43:12.022Z,101194.50
2018-08-09T09:45:41.744Z,101184.70
2018-08-09T09:48:18.182Z,101184.11
2018-08-09T09:50:49.923Z,101171.07
2018-08-09T09:53:19.885Z,101174.66
2018-08-09T09:55:49.594Z,101170.56
2018-08-09T09:58:20.180Z,101161.03
2018-08-09T10:00:54.802Z,101150.73
2018-08-09T10:03:24.469Z,101145.57
2018-08-09T10:05:53.990Z,101153.06
2018-08-09T10:08:23.904Z,101148.23
2018-08-09T10:10:54.470Z,101141.33
2018-08-09T10:13:24.201Z,101130.19
2018-08-09T10:15:53.663Z,101126.35
2018-08-09T10:18:25.094Z,101122.44
2018-08-09T10:20:54.817Z,101128.59
2018-08-09T10:23:25.095Z,101119.38
2018-08-09T10:25:54.769Z,101123.20
2018-08-09T10:28:25.440Z,101126.03
2018-08-09T10:30:55.840Z,101124.02
2018-08-09T10:33:26.618Z,101128.50
2018-08-09T10:35:57.409Z,101115.94
2018-08-09T10:38:27.068Z,101112.62
2018-08-09T10:40:57.660Z,101102.18
2018-08-09T10:43:27.388Z,101094.81
2018-08-09T10:45:57.121Z,101089.50
2018-08-09T10:48:26.880Z,101087.16
2018-08-09T10:50:57.050Z,101090.59
2018-08-09T10:53:26.840Z,101093.77
2018-08-09T10:55:56.461Z,101099.09
2018-08-09T10:58:26.143Z,101092.90
2018-08-09T11:00:55.757Z,101100.33
2018-08-09T11:03:25.233Z,101095.30
2018-08-09T11:05:54.856Z,101093.63
2018-08-09T11:08:24.637Z,101074.78
2018-08-09T11:10:54.549Z,101062.52
2018-08-09T11:13:24.221Z,101065.97
2018-08-09T11:15:53.873Z,101063.44
2018-08-09T11:18:23.528Z,101061.89
2018-08-09T11:20:54.254Z,101057.84
2018-08-09T11:23:23.743Z,101056.16
2018-08-09T11:25:53.430Z,101061.94
2018-08-09T11:28:23.742Z,101048.86
2018-08-09T11:30:53.655Z,101053.91
2018-08-09T11:33:24.716Z,101051.79
2018-08-09T11:35:56.445Z,101052.03
2018-08-09T11:38:26.779Z,101056.11
2018-08-09T11:40:56.311Z,101039.78
2018-08-09T11:43:26.513Z,101032.89
2018-08-09T11:45:56.173Z,101030.50
2018-08-09T11:48:26.602Z,101016.55
2018-08-09T11:50:56.910Z,101014.09
2018-08-09T11:53:26.840Z,101012.31
2018-08-09T11:55:56.477Z,101003.03
2018-08-09T11:58:26.533Z,100987.53
2018-08-09T12:00:56.190Z,100979.34
2018-08-09T12:03:26.099Z,100968.48
2018-08-09T12:05:55.616Z,100958.66
2018-08-09T12:08:25.360Z,100938.28
2018-08-09T12:10:54.952Z,100938.51
2018-08-09T12:13:24.527Z,100927.09
2018-08-09T12:15:55.248Z,100935.05
2018-08-09T12:18:25.657Z,100939.61
2018-08-09T12:20:55.204Z,100946.77
2018-08-09T12:23:24.640Z,100934.51
2018-08-09T12:25:54.231Z,100932.01
2018-08-09T12:28:23.897Z,100932.58
2018-08-09T12:30:53.497Z,100936.88
2018-08-09T12:33:23.427Z,100933.61
2018-08-09T12:35:53.452Z,100927.48
2018-08-09T12:38:23.133Z,100931.22
2018-08-09T12:40:52.716Z,100928.44
2018-08-09T12:43:27.392Z,100921.72
2018-08-09T12:45:57.817Z,100912.52
2018-08-09T12:48:27.530Z,100910.70
2018-08-09T12:50:57.060Z,100901.80
2018-08-09T12:53:29.908Z,100890.58
2018-08-09T12:55:59.732Z,100891.94
2018-08-09T12:58:30.331Z,100889.95
2018-08-09T13:01:00.122Z,100890.15
2018-08-09T13:03:30.567Z,100886.95
2018-08-09T13:06:00.882Z,100866.30
2018-08-09T13:08:30.824Z,100870.51
2018-08-09T13:11:01.450Z,100865.40
2018-08-09T13:13:31.061Z,100857.29
2018-08-09T13:16:00.641Z,100848.53
2018-08-09T13:18:30.827Z,100834.23
2018-08-09T13:21:01.396Z,100836.89
2018-08-09T13:23:49.293Z,100829.70
2018-08-09T13:26:18.833Z,100813.56
2018-08-09T13:28:48.472Z,100811.02
2018-08-09T13:31:18.224Z,100806.48
2018-08-09T13:33:47.826Z,100810.24
2018-08-09T13:36:18.326Z,100805.89
2018-08-09T13:38:49.348Z,100792.94
2018-08-09T13:41:18.985Z,100788.31
2018-08-09T13:43:49.651Z,100779.28
2018-08-09T13:46:19.767Z,100787.08
2018-08-09T13:48:49.787Z,100779.52
2018-08-09T13:51:19.712Z,100779.28
2018-08-09T13:53:49.312Z,100772.19
2018-08-09T13:56:18.967Z,100772.22
2018-08-09T13:58:48.712Z,100770.36
2018-08-09T14:01:19.124Z,100756.08
2018-08-09T14:03:48.843Z,100749.20
2018-08-09T14:06:18.436Z,100747.30
2018-08-09T14:08:48.141Z,100732.60
2018-08-09T14:11:32.044Z,100721.45
2018-08-09T14:14:01.597Z,100708.02
2018-08-09T14:16:32.375Z,100690.86
2018-08-09T14:19:03.056Z,100682.91
2018-08-09T14:21:33.468Z,100674.96
2018-08-09T14:24:03.492Z,100677.29
2018-08-09T14:26:33.298Z,100670.60
2018-08-09T14:29:03.050Z,100662.10
2018-08-09T14:31:33.243Z,100660.19
2018-08-09T14:34:02.931Z,100651.38
2018-08-09T14:36:33.249Z,100653.73
2018-08-09T14:39:02.868Z,100641.61
2018-08-09T14:41:32.563Z,100634.56
2018-08-09T14:44:02.379Z,100625.72
2018-08-09T14:46:32.123Z,100611.17
2018-08-09T14:49:03.158Z,100600.81
2018-08-09T14:51:35.077Z,100594.16
2018-08-09T14:54:04.883Z,100592.75
2018-08-09T14:56:36.240Z,100572.06
2018-08-09T14:59:06.530Z,100578.35
2018-08-09T15:01:36.132Z,100571.61
2018-08-09T15:04:06.735Z,100552.95
2018-08-09T15:06:36.924Z,100548.58
2018-08-09T15:09:10.066Z,100549.63
2018-08-09T15:11:39.997Z,100544.00
2018-08-09T15:14:10.609Z,100529.41
2018-08-09T15:16:41.215Z,100523.20
2018-08-09T15:19:11.061Z,100519.92
2018-08-09T15:24:26.327Z,100515.80
2018-08-09T15:26:56.019Z,100516.62
2018-08-09T15:29:25.707Z,100505.37
2018-08-09T15:31:56.485Z,100505.08
2018-08-09T15:34:26.304Z,100499.25
2018-08-09T15:36:56.003Z,100479.05
2018-08-09T15:39:25.967Z,100484.11
2018-08-09T15:41:56.198Z,100487.39
2018-08-09T15:44:25.755Z,100476.19
2018-08-09T15:46:55.364Z,100474.02
2018-08-09T15:49:25.118Z,100464.09
2018-08-09T15:51:55.588Z,100472.88
2018-08-09T15:54:25.322Z,100467.23
2018-08-09T15:56:55.629Z,100455.14
2018-08-09T15:59:25.225Z,100453.38
2018-08-09T16:01:54.963Z,100443.92
2018-08-09T16:04:25.416Z,100435.09
2018-08-09T16:06:55.248Z,100441.99
2018-08-09T16:10:02.024Z,100436.73
2018-08-09T16:12:31.697Z,100431.34
2018-08-09T16:15:01.289Z,100416.77
2018-08-09T16:17:30.996Z,100406.05
2018-08-09T16:20:00.761Z,100401.70
2018-08-09T16:22:30.542Z,100394.10
2018-08-09T16:25:00.004Z,100392.23
2018-08-09T16:27:44.606Z,100394.78
2018-08-09T16:30:21.759Z,100394.18
2018-08-09T16:32:51.586Z,100392.02
2018-08-09T16:35:21.301Z,100382.55
2018-08-09T16:37:51.114Z,100369.44
2018-08-09T16:40:24.768Z,100365.70
2018-08-09T16:42:54.911Z,100345.48
2018-08-09T16:45:25.396Z,100350.14
2018-08-09T16:47:55.805Z,100367.27
2018-08-09T16:50:26.277Z,100372.93
2018-08-09T16:52:56.179Z,100377.23
2018-08-09T16:55:27.214Z,100378.48
2018-08-09T16:57:56.898Z,100376.47
2018-08-09T17:00:26.686Z,100370.55
2018-08-09T17:02:56.644Z,100359.11
2018-08-09T17:05:28.143Z,100357.84
2018-08-09T17:07:58.300Z,100346.58
2018-08-09T17:10:28.567Z,100322.98
2018-08-09T17:12:58.268Z,100310.19
2018-08-09T17:15:29.220Z,100302.20
2018-08-09T17:17:59.724Z,100302.20
2018-08-09T17:20:58.106Z,100300.70
2018-08-09T17:23:27.726Z,100302.01
2018-08-09T17:25:57.423Z,100286.66
2018-08-09T17:28:27.177Z,100296.64
2018-08-09T17:30:56.865Z,100445.38
2018-08-09T17:33:26.593Z,100513.88
2018-08-09T17:38:26.083Z,100513.30
2018-08-09T17:40:55.630Z,100495.14
2018-08-09T17:43:25.168Z,100478.63
2018-08-09T17:45:55.733Z,100422.98
2018-08-09T17:48:25.357Z,100422.34
2018-08-09T17:50:57.577Z,100454.34
2018-08-09T17:53:28.712Z,100455.86
2018-08-09T17:55:58.224Z,100469.17
2018-08-09T17:58:28.303Z,100459.66
2018-08-09T18:00:58.886Z,100490.48
2018-08-09T18:03:29.414Z,100516.34
2018-08-09T18:05:58.881Z,100509.64
2018-08-09T18:08:28.495Z,100501.87
2018-08-09T18:10:58.100Z,100500.54
2018-08-09T18:13:27.729Z,100501.67
2018-08-09T18:15:57.247Z,100514.39
2018-08-09T18:18:26.882Z,100529.04
2018-08-09T18:20:56.561Z,100542.37
2018-08-09T18:23:26.233Z,100541.06
2018-08-09T18:25:55.869Z,100528.17
2018-08-09T18:28:25.686Z,100524.73
2018-08-09T18:30:56.311Z,100502.95
2018-08-09T18:33:25.852Z,100488.77
2018-08-09T18:35:55.441Z,100475.03
2018-08-09T18:38:25.058Z,100474.95
2018-08-09T18:40:54.661Z,100485.41
2018-08-09T18:43:24.158Z,100478.99
2018-08-09T18:45:54.448Z,100450.52
2018-08-09T18:48:24.002Z,100440.19
2018-08-09T18:50:53.423Z,100447.11
2018-08-09T18:53:23.063Z,100436.73
2018-08-09T18:55:52.617Z,100432.34
2018-08-09T18:58:22.504Z,100432.25
2018-08-09T19:00:52.585Z,100438.28
2018-08-09T19:03:22.269Z,100441.56
2018-08-09T19:05:52.214Z,100443.73
2018-08-09T19:08:21.867Z,100435.19
2018-08-09T19:10:51.898Z,100457.46
2018-08-09T19:13:22.789Z,100448.75
2018-08-09T19:15:52.471Z,100451.68
2018-08-09T19:18:22.187Z,100463.70
2018-08-09T19:20:52.873Z,100468.16
2018-08-09T19:23:23.353Z,100463.34
2018-08-09T19:25:53.169Z,100476.38
2018-08-09T19:28:23.753Z,100466.50
2018-08-09T19:30:54.677Z,100456.88
2018-08-09T19:33:24.331Z,100461.19
2018-08-09T19:35:54.103Z,100460.94
2018-08-09T19:38:23.797Z,100457.94
2018-08-09T19:40:53.386Z,100448.03
2018-08-09T19:43:23.613Z,100450.81
2018-08-09T19:45:53.132Z,100452.08
2018-08-09T19:48:22.847Z,100455.66
2018-08-09T19:50:52.739Z,100459.74
2018-08-09T19:53:22.580Z,100448.06
2018-08-09T19:55:52.344Z,100447.48
2018-08-09T19:58:22.009Z,100462.09
2018-08-09T20:00:51.582Z,100461.94
2018-08-09T20:03:21.561Z,100462.81
2018-08-09T20:05:51.270Z,100463.19
2018-08-09T20:08:20.704Z,100464.50
2018-08-09T20:10:50.172Z,100456.77
2018-08-09T20:13:19.851Z,100452.25
2018-08-09T20:15:49.476Z,100457.93
2018-08-09T20:18:19.036Z,100461.38
2018-08-09T20:20:48.631Z,100460.55
2018-08-09T20:23:18.225Z,100459.03
2018-08-09T20:25:47.807Z,100455.16
2018-08-09T20:28:17.293Z,100465.93
2018-08-09T20:30:47.290Z,100467.59
2018-08-09T20:33:16.913Z,100457.14
2018-08-09T20:35:46.454Z,100477.28
2018-08-09T20:38:16.120Z,100469.45
2018-08-09T20:40:45.703Z,100469.93
2018-08-09T20:43:15.355Z,100469.59
2018-08-09T20:45:45.047Z,100475.89
2018-08-09T20:48:14.688Z,100481.67
2018-08-09T20:50:44.280Z,100478.25
2018-08-09T20:53:14.001Z,100481.11
2018-08-09T20:55:44.193Z,100476.05
2018-08-09T20:58:13.835Z,100476.02
2018-08-09T21:00:43.300Z,100468.86
2018-08-09T21:03:12.795Z,100481.08
2018-08-09T21:05:42.421Z,100478.37
2018-08-09T21:08:12.644Z,100471.68
2018-08-09T21:10:42.251Z,100478.58
2018-08-09T21:13:11.878Z,100482.44
2018-08-09T21:15:41.497Z,100486.39
2018-08-09T21:18:11.452Z,100481.77
2018-08-09T21:20:41.063Z,100468.61
2018-08-09T21:23:10.588Z,100462.41
2018-08-09T21:25:40.099Z,100470.71
2018-08-09T21:28:09.815Z,100473.97
2018-08-09T21:30:39.787Z,100474.27
2018-08-09T21:33:09.629Z,100474.19
2018-08-09T21:35:39.248Z,100467.83
2018-08-09T21:38:08.832Z,100473.77
2018-08-09T21:40:38.366Z,100477.59
2018-08-09T21:43:07.962Z,100473.44
2018-08-09T21:45:37.591Z,100470.91
2018-08-09T21:48:07.329Z,100467.16
2018-08-09T21:50:36.908Z,100470.95
2018-08-09T21:53:06.886Z,100470.84
2018-08-09T21:55:36.476Z,100469.47
2018-08-09T21:58:06.247Z,100460.28
2018-08-09T22:00:54.783Z,100465.78
2018-08-09T22:03:28.858Z,100470.84
2018-08-09T22:06:03.617Z,100476.41
2018-08-09T22:08:38.295Z,100473.70
2018-08-09T22:11:14.622Z,100473.77
2018-08-09T22:13:49.787Z,100482.77
2018-08-09T22:16:24.809Z,100480.13
2018-08-09T22:18:59.493Z,100488.63
2018-08-09T22:21:34.157Z,100486.86
2018-08-09T22:24:03.659Z,100484.83
2018-08-09T22:26:33.080Z,100485.20
2018-08-09T22:29:02.704Z,100487.69
2018-08-09T22:31:32.596Z,100487.15
2018-08-09T22:34:02.201Z,100484.62
2018-08-09T22:36:31.831Z,100490.44
2018-08-09T22:39:01.494Z,100496.38
2018-08-09T22:41:30.985Z,100500.64
2018-08-09T22:44:01.919Z,100501.44
2018-08-09T22:46:31.628Z,100490.22
2018-08-09T22:49:01.652Z,100496.48
2018-08-09T22:51:31.217Z,100499.95
2018-08-09T22:54:00.790Z,100495.94
2018-08-09T22:56:30.465Z,100501.44
2018-08-09T22:59:00.169Z,100502.27
2018-08-09T23:01:29.755Z,100505.73
2018-08-09T23:03:59.264Z,100510.40
2018-08-09T23:06:31.374Z,100511.31
2018-08-09T23:09:00.975Z,100521.00
2018-08-09T23:11:30.882Z,100522.64
2018-08-09T23:14:01.250Z,100533.20
2018-08-09T23:16:30.837Z,100533.06
2018-08-09T23:19:00.512Z,100533.56
2018-08-09T23:21:31.175Z,100542.76
2018-08-09T23:24:00.752Z,100534.47
2018-08-09T23:26:31.245Z,100545.55
2018-08-09T23:29:01.311Z,100543.51
2018-08-09T23:31:31.889Z,100547.20
2018-08-09T23:34:01.414Z,100544.45
2018-08-09T23:36:31.069Z,100563.05
2018-08-09T23:39:01.004Z,100546.45
2018-08-09T23:41:30.844Z,100548.36
2018-08-09T23:44:01.189Z,100542.41
2018-08-09T23:46:34.416Z,100539.30
2018-08-09T23:49:04.830Z,100535.36
2018-08-09T23:51:34.470Z,100541.47
2018-08-09T23:54:05.180Z,100541.90
2018-08-09T23:56:34.742Z,100550.66
2018-08-09T23:59:04.351Z,100551.92
